createdAt,value
2017-09-19T00:02:25.549Z,12.60
2017-09-19T00:04:53.065Z,12.60
2017-09-19T00:07:20.591Z,12.60
2017-09-19T00:09:48.108Z,12.60
2017-09-19T00:12:15.613Z,12.60
2017-09-19T00:14:43.144Z,12.60
2017-09-19T00:17:10.692Z,12.50
2017-09-19T00:19:38.210Z,12.50
2017-09-19T00:22:05.739Z,12.50
2017-09-19T00:24:33.260Z,12.40
2017-09-19T00:27:01.542Z,12.40
2017-09-19T00:29:29.839Z,12.40
2017-09-19T00:31:57.374Z,12.40
2017-09-19T00:34:25.654Z,12.40
2017-09-19T00:36:53.969Z,12.40
2017-09-19T00:39:21.523Z,12.30
2017-09-19T00:41:49.070Z,12.40
2017-09-19T00:44:16.589Z,12.40
2017-09-19T00:46:44.893Z,12.30
2017-09-19T00:49:12.458Z,12.30
2017-09-19T00:51:39.974Z,12.30
2017-09-19T00:54:07.536Z,12.30
2017-09-19T00:56:35.097Z,12.30
2017-09-19T00:59:02.624Z,12.20
2017-09-19T01:01:30.154Z,12.20
2017-09-19T01:03:57.679Z,12.20
2017-09-19T01:06:25.235Z,12.20
2017-09-19T01:08:52.761Z,12.10
2017-09-19T01:11:20.276Z,12.10
2017-09-19T01:13:48.567Z,12.10
2017-09-19T01:16:16.090Z,12.10
2017-09-19T01:18:43.611Z,12.10
2017-09-19T01:21:11.139Z,12.00
2017-09-19T01:23:39.431Z,12.00
2017-09-19T01:26:07.743Z,12.00
2017-09-19T01:28:35.283Z,12.00
2017-09-19T01:31:02.816Z,12.00
2017-09-19T01:33:31.090Z,11.90
2017-09-19T01:35:59.378Z,11.90
2017-09-19T01:38:26.964Z,11.90
2017-09-19T01:40:54.534Z,12.00
2017-09-19T01:43:22.053Z,11.90
2017-09-19T01:45:49.554Z,11.90
2017-09-19T01:48:17.096Z,12.00
2017-09-19T01:50:44.624Z,11.90
2017-09-19T01:53:12.935Z,11.80
2017-09-19T01:55:40.457Z,11.80
2017-09-19T01:58:08.739Z,11.60
2017-09-19T02:00:37.015Z,11.40
2017-09-19T02:03:05.297Z,11.40
2017-09-19T02:05:32.838Z,11.40
2017-09-19T02:08:01.126Z,11.40
2017-09-19T02:10:28.667Z,11.40
2017-09-19T02:12:56.189Z,11.40
2017-09-19T02:15:23.758Z,11.30
2017-09-19T02:17:51.305Z,11.40
2017-09-19T02:20:18.834Z,11.40
2017-09-19T02:22:46.362Z,11.40
2017-09-19T02:25:13.886Z,11.20
2017-09-19T02:27:41.415Z,11.20
2017-09-19T02:30:08.987Z,11.20
2017-09-19T02:32:36.499Z,11.20
2017-09-19T02:35:04.031Z,11.10
2017-09-19T02:37:31.556Z,11.20
2017-09-19T02:39:59.074Z,11.20
2017-09-19T02:42:26.942Z,11.20
2017-09-19T02:44:54.472Z,11.20
2017-09-19T02:47:21.992Z,11.30
2017-09-19T02:49:50.268Z,11.30
2017-09-19T02:52:17.852Z,11.20
2017-09-19T02:54:45.368Z,11.30
2017-09-19T02:57:13.772Z,11.20
2017-09-19T02:59:41.297Z,11.10
2017-09-19T03:02:08.831Z,11.10
2017-09-19T03:04:36.421Z,11.10
2017-09-19T03:07:03.977Z,11.00
2017-09-19T03:09:31.498Z,10.90
2017-09-19T03:11:59.027Z,10.90
2017-09-19T03:14:26.556Z,10.90
2017-09-19T03:16:54.080Z,10.90
2017-09-19T03:19:21.609Z,11.00
2017-09-19T03:21:49.133Z,11.00
2017-09-19T03:24:16.651Z,11.00
2017-09-19T03:26:44.182Z,10.90
2017-09-19T03:29:12.532Z,10.90
2017-09-19T03:31:40.060Z,10.80
2017-09-19T03:34:07.574Z,10.80
2017-09-19T03:36:35.852Z,10.80
2017-09-19T03:39:04.117Z,10.80
2017-09-19T03:41:32.409Z,10.80
2017-09-19T03:44:00.688Z,10.70
2017-09-19T03:46:28.972Z,10.60
2017-09-19T03:48:56.477Z,10.60
2017-09-19T03:51:23.986Z,10.70
2017-09-19T03:53:51.514Z,10.60
2017-09-19T03:56:19.048Z,10.60
2017-09-19T03:58:46.568Z,10.60
2017-09-19T04:01:14.073Z,10.60
2017-09-19T04:03:41.621Z,10.60
2017-09-19T04:06:09.131Z,10.60
2017-09-19T04:08:36.646Z,10.70
2017-09-19T04:11:04.159Z,10.60
2017-09-19T04:13:31.668Z,10.70
2017-09-19T04:15:59.210Z,10.80
2017-09-19T04:18:26.721Z,10.70
2017-09-19T04:20:55.004Z,10.70
2017-09-19T04:23:23.321Z,10.60
2017-09-19T04:25:50.860Z,10.60
2017-09-19T04:28:18.401Z,10.50
2017-09-19T04:30:46.725Z,10.50
2017-09-19T04:33:14.259Z,10.50
2017-09-19T04:35:41.812Z,10.50
2017-09-19T04:38:09.336Z,10.50
2017-09-19T04:40:36.863Z,10.40
2017-09-19T04:43:04.392Z,10.50
2017-09-19T04:45:31.914Z,10.40
2017-09-19T04:47:59.441Z,10.50
2017-09-19T04:50:26.952Z,10.50
2017-09-19T04:52:55.244Z,10.50
2017-09-19T04:55:22.772Z,10.40
2017-09-19T04:57:50.292Z,10.40
2017-09-19T05:00:17.795Z,10.40
2017-09-19T05:02:46.081Z,10.50
2017-09-19T05:05:14.367Z,10.40
2017-09-19T05:07:42.650Z,10.30
2017-09-19T05:10:10.194Z,10.30
2017-09-19T05:12:37.734Z,10.30
2017-09-19T05:15:05.260Z,10.30
2017-09-19T05:17:32.780Z,10.30
2017-09-19T05:20:01.063Z,10.20
2017-09-19T05:22:28.700Z,10.20
2017-09-19T05:24:56.225Z,10.20
2017-09-19T05:27:23.756Z,10.30
2017-09-19T05:29:51.298Z,10.20
2017-09-19T05:32:18.841Z,10.20
2017-09-19T05:34:47.149Z,10.20
2017-09-19T05:37:14.681Z,10.20
2017-09-19T05:39:42.362Z,10.10
2017-09-19T05:42:09.902Z,10.20
2017-09-19T05:44:38.239Z,10.20
2017-09-19T05:47:06.420Z,10.10
2017-09-19T05:49:33.956Z,10.20
2017-09-19T05:52:01.505Z,10.30
2017-09-19T05:54:29.156Z,10.30
2017-09-19T05:56:56.691Z,10.40
2017-09-19T05:59:24.228Z,10.40
2017-09-19T06:01:51.754Z,10.30
2017-09-19T06:04:19.277Z,10.30
2017-09-19T06:06:47.560Z,10.40
2017-09-19T06:09:27.735Z,10.40
2017-09-19T06:11:55.244Z,10.30
2017-09-19T06:14:22.763Z,10.40
2017-09-19T06:16:50.277Z,10.40
2017-09-19T06:19:17.811Z,10.50
2017-09-19T06:21:45.372Z,10.50
2017-09-19T06:24:12.910Z,10.50
2017-09-19T06:26:40.450Z,10.50
2017-09-19T06:29:07.979Z,10.50
2017-09-19T06:31:35.515Z,10.60
2017-09-19T06:34:03.047Z,10.60
2017-09-19T06:36:30.590Z,10.60
2017-09-19T06:38:58.113Z,10.70
2017-09-19T06:41:25.638Z,10.80
2017-09-19T06:43:53.163Z,11.00
2017-09-19T06:46:20.691Z,11.10
2017-09-19T06:48:48.218Z,11.30
2017-09-19T06:51:15.761Z,11.30
2017-09-19T06:53:43.288Z,11.30
2017-09-19T06:56:10.985Z,11.30
2017-09-19T06:58:38.507Z,11.20
2017-09-19T07:01:06.772Z,11.40
2017-09-19T07:03:34.330Z,11.40
2017-09-19T07:06:01.851Z,11.50
2017-09-19T07:08:29.450Z,11.50
2017-09-19T07:10:56.996Z,11.60
2017-09-19T07:13:24.535Z,11.70
2017-09-19T07:15:52.077Z,11.70
2017-09-19T07:18:19.608Z,11.70
2017-09-19T07:20:47.907Z,11.80
2017-09-19T07:23:15.499Z,11.80
2017-09-19T07:25:43.038Z,11.80
2017-09-19T07:28:10.702Z,12.00
2017-09-19T07:30:38.210Z,12.20
2017-09-19T07:33:05.752Z,12.30
2017-09-19T07:35:33.317Z,12.40
2017-09-19T07:38:00.859Z,12.40
2017-09-19T07:40:28.416Z,12.40
2017-09-19T07:42:55.943Z,12.40
2017-09-19T07:45:23.467Z,12.50
2017-09-19T07:47:51.011Z,12.60
2017-09-19T07:50:18.591Z,12.80
2017-09-19T07:52:46.107Z,12.80
2017-09-19T07:55:13.861Z,12.90
2017-09-19T07:57:41.440Z,13.00
2017-09-19T08:00:08.957Z,13.10
2017-09-19T08:02:36.535Z,13.20
2017-09-19T08:05:04.067Z,13.40
2017-09-19T08:07:31.616Z,13.50
2017-09-19T08:09:59.164Z,13.60
2017-09-19T08:12:27.760Z,13.80
2017-09-19T08:14:55.335Z,13.90
2017-09-19T08:17:23.672Z,14.00
2017-09-19T08:19:51.224Z,13.90
2017-09-19T08:22:18.779Z,14.00
2017-09-19T08:24:46.340Z,14.00
2017-09-19T08:27:13.863Z,14.10
2017-09-19T08:29:41.383Z,14.00
2017-09-19T08:32:08.915Z,14.10
2017-09-19T08:34:36.457Z,14.00
2017-09-19T08:37:04.003Z,14.00
2017-09-19T08:39:31.529Z,13.90
2017-09-19T08:41:59.059Z,13.90
2017-09-19T08:44:26.618Z,14.10
2017-09-19T08:46:54.143Z,14.20
2017-09-19T08:49:21.666Z,14.30
2017-09-19T08:51:49.172Z,14.30
2017-09-19T08:54:16.701Z,14.40
2017-09-19T08:56:44.225Z,14.50
2017-09-19T08:59:11.753Z,14.50
2017-09-19T09:01:39.266Z,14.60
2017-09-19T09:04:06.795Z,14.60
2017-09-19T09:06:34.320Z,14.70
2017-09-19T09:09:02.095Z,14.80
2017-09-19T09:11:29.634Z,14.80
2017-09-19T09:13:57.908Z,14.90
2017-09-19T09:16:26.178Z,14.90
2017-09-19T09:18:54.461Z,15.00
2017-09-19T09:21:22.753Z,15.00
2017-09-19T09:23:50.259Z,15.00
2017-09-19T09:26:17.813Z,15.10
2017-09-19T09:28:45.359Z,15.10
2017-09-19T09:31:12.895Z,15.20
2017-09-19T09:33:40.399Z,15.30
2017-09-19T09:36:07.928Z,15.40
2017-09-19T09:38:35.467Z,15.60
2017-09-19T09:41:03.002Z,15.70
2017-09-19T09:43:31.279Z,16.00
2017-09-19T09:45:59.569Z,16.00
2017-09-19T09:48:27.904Z,16.10
2017-09-19T09:50:55.419Z,16.10
2017-09-19T09:53:22.951Z,16.20
2017-09-19T09:55:51.247Z,16.20
2017-09-19T09:58:19.533Z,16.40
2017-09-19T10:00:47.039Z,16.40
2017-09-19T10:03:14.701Z,16.50
2017-09-19T10:05:42.217Z,16.50
2017-09-19T10:08:10.670Z,16.40
2017-09-19T10:10:38.348Z,16.60
2017-09-19T10:13:06.036Z,16.80
2017-09-19T10:15:33.590Z,17.10
2017-09-19T10:18:01.127Z,17.60
2017-09-19T10:20:28.636Z,18.00
2017-09-19T10:22:56.182Z,19.10
2017-09-19T10:25:23.705Z,19.50
2017-09-19T10:27:51.246Z,19.10
2017-09-19T10:30:18.781Z,18.60
2017-09-19T10:32:46.321Z,18.20
2017-09-19T10:35:13.864Z,18.40
2017-09-19T10:37:41.425Z,18.30
2017-09-19T10:40:08.984Z,18.10
2017-09-19T10:42:36.510Z,18.30
2017-09-19T10:45:04.826Z,18.30
2017-09-19T10:47:32.353Z,18.30
2017-09-19T10:50:00.644Z,20.40
2017-09-19T10:52:28.178Z,20.40
2017-09-19T10:54:55.786Z,22.10
2017-09-19T10:57:23.331Z,23.90
2017-09-19T10:59:50.869Z,25.00
2017-09-19T11:02:19.164Z,25.50
2017-09-19T11:04:46.682Z,25.50
2017-09-19T11:07:14.236Z,26.40
2017-09-19T11:09:41.774Z,28.00
2017-09-19T11:12:09.324Z,29.00
2017-09-19T11:14:36.863Z,30.30
2017-09-19T11:17:04.379Z,30.40
2017-09-19T11:19:31.917Z,30.40
2017-09-19T11:21:59.454Z,30.70
2017-09-19T11:24:26.974Z,30.30
2017-09-19T11:26:54.519Z,30.10
2017-09-19T11:29:22.037Z,30.20
2017-09-19T11:31:49.600Z,30.70
2017-09-19T11:34:17.301Z,30.90
2017-09-19T11:36:44.919Z,30.90
2017-09-19T11:39:12.465Z,29.60
2017-09-19T11:41:39.984Z,27.80
2017-09-19T11:44:07.518Z,27.50
2017-09-19T11:46:35.043Z,27.20
2017-09-19T11:49:02.575Z,26.70
2017-09-19T11:51:30.110Z,25.20
2017-09-19T11:53:57.637Z,23.90
2017-09-19T11:56:25.159Z,23.10
2017-09-19T11:58:53.482Z,23.10
2017-09-19T12:01:20.990Z,23.10
2017-09-19T12:03:48.488Z,23.10
2017-09-19T12:06:16.025Z,22.90
2017-09-19T12:08:43.540Z,22.40
2017-09-19T12:11:11.200Z,22.10
2017-09-19T12:13:38.734Z,21.70
2017-09-19T12:16:06.264Z,21.50
2017-09-19T12:18:34.595Z,21.00
2017-09-19T12:21:02.125Z,21.00
2017-09-19T12:23:29.654Z,21.00
2017-09-19T12:25:57.180Z,21.00
2017-09-19T12:28:24.682Z,22.00
2017-09-19T12:30:53.086Z,23.50
2017-09-19T12:33:20.592Z,23.50
2017-09-19T12:35:48.096Z,24.70
2017-09-19T12:38:15.594Z,25.70
2017-09-19T12:40:43.100Z,25.50
2017-09-19T12:43:10.628Z,24.80
2017-09-19T12:45:38.153Z,24.60
2017-09-19T12:48:05.699Z,24.40
2017-09-19T12:50:33.234Z,24.30
2017-09-19T12:53:01.501Z,22.60
2017-09-19T12:55:29.813Z,22.20
2017-09-19T12:57:57.340Z,22.20
2017-09-19T13:00:25.648Z,22.10
2017-09-19T13:02:53.172Z,22.10
2017-09-19T13:05:21.481Z,23.00
2017-09-19T13:07:49.016Z,23.00
2017-09-19T13:10:17.328Z,22.70
2017-09-19T13:12:44.833Z,22.70
2017-09-19T13:15:12.394Z,22.00
2017-09-19T13:17:39.932Z,21.40
2017-09-19T13:20:07.431Z,21.30
2017-09-19T13:22:35.708Z,20.80
2017-09-19T13:25:04.151Z,20.60
2017-09-19T13:34:16.296Z,20.70
2017-09-19T13:36:43.819Z,21.10
2017-09-19T13:39:11.387Z,21.10
2017-09-19T13:41:38.908Z,21.20
2017-09-19T13:44:07.207Z,21.70
2017-09-19T13:46:34.747Z,21.70
2017-09-19T13:49:03.029Z,21.80
2017-09-19T13:51:30.558Z,21.80
2017-09-19T13:53:58.082Z,21.40
2017-09-19T13:56:25.842Z,20.90
2017-09-19T13:58:53.365Z,20.70
2017-09-19T14:01:21.680Z,20.50
2017-09-19T14:03:49.184Z,20.50
2017-09-19T14:06:16.697Z,20.60
2017-09-19T14:08:44.223Z,20.60
2017-09-19T14:11:12.530Z,20.40
2017-09-19T14:13:40.029Z,20.40
2017-09-19T14:16:07.555Z,20.50
2017-09-19T14:18:35.419Z,20.30
2017-09-19T14:21:02.923Z,20.30
2017-09-19T14:23:30.953Z,20.40
2017-09-19T14:25:58.482Z,20.40
2017-09-19T14:28:26.778Z,20.40
2017-09-19T14:30:55.106Z,20.40
2017-09-19T14:33:22.658Z,20.60
2017-09-19T14:35:50.182Z,20.70
2017-09-19T14:38:17.694Z,20.60
2017-09-19T14:40:45.372Z,20.70
2017-09-19T14:43:12.905Z,20.70
2017-09-19T14:45:40.425Z,20.60
2017-09-19T14:48:07.953Z,20.50
2017-09-19T14:50:35.470Z,20.20
2017-09-19T14:53:02.989Z,20.00
2017-09-19T14:55:30.587Z,19.60
2017-09-19T14:57:58.112Z,19.50
2017-09-19T15:00:25.677Z,19.60
2017-09-19T15:02:53.245Z,19.40
2017-09-19T15:05:20.771Z,19.10
2017-09-19T15:07:48.292Z,19.00
2017-09-19T15:10:15.808Z,19.10
2017-09-19T15:12:44.168Z,19.10
2017-09-19T15:15:12.453Z,18.90
2017-09-19T15:17:39.971Z,18.80
2017-09-19T15:20:07.602Z,18.80
2017-09-19T15:22:35.124Z,18.80
2017-09-19T15:25:03.422Z,18.80
2017-09-19T15:27:30.949Z,18.70
2017-09-19T15:29:58.520Z,18.80
2017-09-19T15:32:26.806Z,18.70
2017-09-19T15:34:55.119Z,18.70
2017-09-19T15:37:22.634Z,18.70
2017-09-19T15:39:50.175Z,18.70
2017-09-19T15:42:17.685Z,18.80
2017-09-19T15:44:45.244Z,18.80
2017-09-19T15:47:12.796Z,18.80
2017-09-19T15:49:40.359Z,18.80
2017-09-19T15:52:07.892Z,18.70
2017-09-19T15:54:36.192Z,18.50
2017-09-19T15:57:03.754Z,18.50
2017-09-19T15:59:31.297Z,18.30
2017-09-19T16:01:59.634Z,18.00
2017-09-19T16:04:27.247Z,18.00
2017-09-19T16:06:54.825Z,18.00
2017-09-19T16:09:22.389Z,18.10
2017-09-19T16:11:49.909Z,18.10
2017-09-19T16:14:17.470Z,18.10
2017-09-19T16:16:45.757Z,18.00
2017-09-19T16:19:14.060Z,18.10
2017-09-19T16:21:41.582Z,18.10
2017-09-19T16:24:09.899Z,17.90
2017-09-19T16:26:37.463Z,17.90
2017-09-19T16:29:05.022Z,17.80
2017-09-19T16:31:32.867Z,17.90
2017-09-19T16:34:00.421Z,17.80
2017-09-19T16:36:28.719Z,17.60
2017-09-19T16:38:57.218Z,17.60
2017-09-19T16:41:24.840Z,17.60
2017-09-19T16:43:53.292Z,17.60
2017-09-19T16:46:20.842Z,17.60
2017-09-19T16:48:48.389Z,17.60
2017-09-19T16:51:15.952Z,17.50
2017-09-19T16:53:43.510Z,17.50
2017-09-19T16:56:11.044Z,17.50
2017-09-19T16:58:38.576Z,17.40
2017-09-19T17:01:06.116Z,17.40
2017-09-19T17:03:33.680Z,17.40
2017-09-19T17:06:01.999Z,17.40
2017-09-19T17:08:29.563Z,17.40
2017-09-19T17:11:10.031Z,17.40
2017-09-19T17:13:37.552Z,17.30
2017-09-19T17:16:05.860Z,17.20
2017-09-19T17:18:35.213Z,17.20
2017-09-19T17:21:02.789Z,17.20
2017-09-19T17:23:31.072Z,17.10
2017-09-19T17:25:59.362Z,17.00
2017-09-19T17:28:26.876Z,17.00
2017-09-19T17:30:54.407Z,17.00
2017-09-19T17:33:21.941Z,16.80
2017-09-19T17:35:49.482Z,16.90
2017-09-19T17:38:17.323Z,16.90
2017-09-19T17:40:44.838Z,16.90
2017-09-19T17:43:12.382Z,16.70
2017-09-19T17:45:39.911Z,16.80
2017-09-19T17:48:07.468Z,16.80
2017-09-19T17:50:35.066Z,16.90
2017-09-19T17:53:03.869Z,16.90
2017-09-19T17:55:31.378Z,16.80
2017-09-19T17:57:59.531Z,16.80
2017-09-19T18:00:27.153Z,16.80
2017-09-19T18:02:54.667Z,16.90
2017-09-19T18:05:25.710Z,16.90
2017-09-19T18:07:53.330Z,16.90
2017-09-19T18:10:20.842Z,16.90
2017-09-19T18:12:48.441Z,16.80
2017-09-19T18:15:15.959Z,16.70
2017-09-19T18:17:43.628Z,16.70
2017-09-19T18:20:11.274Z,16.80
2017-09-19T18:22:38.844Z,16.80
2017-09-19T18:25:07.769Z,16.80
2017-09-19T18:27:35.313Z,16.80
2017-09-19T18:30:02.821Z,16.80
2017-09-19T18:32:30.334Z,16.80
2017-09-19T18:34:58.636Z,16.80
2017-09-19T18:37:26.173Z,16.80
2017-09-19T18:39:54.481Z,16.90
2017-09-19T18:42:22.002Z,16.80
2017-09-19T18:44:50.473Z,16.60
2017-09-19T18:47:18.020Z,16.60
2017-09-19T18:49:45.542Z,16.70
2017-09-19T18:52:13.083Z,16.70
2017-09-19T18:54:40.934Z,16.70
2017-09-19T18:57:09.331Z,16.70
2017-09-19T18:59:36.876Z,16.70
2017-09-19T19:02:05.173Z,16.70
2017-09-19T19:04:33.461Z,16.70
2017-09-19T19:07:00.972Z,16.70
2017-09-19T19:09:28.573Z,16.80
2017-09-19T19:11:56.109Z,16.70
2017-09-19T19:14:24.478Z,16.60
2017-09-19T19:16:53.397Z,16.50
2017-09-19T19:19:21.142Z,16.50
2017-09-19T19:21:49.457Z,16.40
2017-09-19T19:24:16.987Z,16.30
2017-09-19T19:26:45.447Z,16.30
2017-09-19T19:29:13.750Z,16.30
2017-09-19T19:31:42.056Z,16.30
2017-09-19T19:34:09.600Z,16.20
2017-09-19T19:36:37.150Z,16.30
2017-09-19T19:39:04.705Z,16.20
2017-09-19T19:41:33.122Z,16.20
2017-09-19T19:44:00.657Z,16.20
2017-09-19T19:46:28.530Z,16.20
2017-09-19T19:48:56.040Z,16.10
2017-09-19T19:51:23.651Z,16.10
2017-09-19T19:53:51.232Z,16.00
2017-09-19T19:56:18.771Z,16.00
2017-09-19T19:58:46.337Z,16.00
2017-09-19T20:01:13.893Z,16.00
2017-09-19T20:03:41.525Z,15.90
2017-09-19T20:06:09.851Z,15.90
2017-09-19T20:08:37.383Z,15.90
2017-09-19T20:11:04.909Z,15.90
2017-09-19T20:13:32.467Z,15.90
2017-09-19T20:16:00.020Z,15.80
2017-09-19T20:18:27.639Z,15.80
2017-09-19T20:20:55.177Z,15.70
2017-09-19T20:23:22.740Z,15.70
2017-09-19T20:25:50.275Z,15.70
2017-09-19T20:28:17.874Z,15.60
2017-09-19T20:30:45.472Z,15.60
2017-09-19T20:33:13.121Z,15.50
2017-09-19T20:35:40.732Z,15.40
2017-09-19T20:38:08.312Z,15.30
2017-09-19T20:40:35.862Z,15.30
2017-09-19T20:43:03.481Z,15.20
2017-09-19T20:45:31.011Z,15.10
2017-09-19T20:47:58.613Z,15.20
2017-09-19T20:50:26.163Z,15.20
2017-09-19T20:52:53.819Z,15.10
2017-09-19T20:55:21.417Z,15.10
2017-09-19T20:57:48.987Z,15.10
2017-09-19T21:00:17.383Z,15.10
2017-09-19T21:02:44.545Z,15.10
2017-09-19T21:05:17.705Z,15.10
2017-09-19T21:07:51.745Z,15.00
2017-09-19T21:10:24.908Z,14.90
2017-09-19T21:12:58.050Z,14.90
2017-09-19T21:15:31.155Z,14.90
2017-09-19T21:18:04.322Z,14.80
2017-09-19T21:20:31.340Z,14.80
2017-09-19T21:22:58.882Z,14.70
2017-09-19T21:25:26.451Z,14.70
2017-09-19T21:27:54.074Z,14.60
2017-09-19T21:30:21.626Z,14.70
2017-09-19T21:32:49.271Z,14.70
2017-09-19T21:35:16.806Z,14.70
2017-09-19T21:37:44.418Z,14.70
2017-09-19T21:40:11.958Z,14.70
2017-09-19T21:42:39.505Z,14.70
2017-09-19T21:45:07.030Z,14.70
2017-09-19T21:47:34.572Z,14.60
2017-09-19T21:50:03.016Z,14.70
2017-09-19T21:52:30.600Z,14.60
2017-09-19T21:54:58.140Z,14.50
2017-09-19T21:57:25.690Z,14.50
2017-09-19T21:59:53.327Z,14.50
2017-09-19T22:02:20.874Z,14.50
2017-09-19T22:04:49.176Z,14.40
2017-09-19T22:07:16.738Z,14.40
2017-09-19T22:09:44.280Z,14.40
2017-09-19T22:12:11.804Z,14.40
2017-09-19T22:14:39.447Z,14.40
2017-09-19T22:17:06.985Z,14.30
2017-09-19T22:19:34.622Z,14.20
2017-09-19T22:22:02.223Z,14.10
2017-09-19T22:24:30.515Z,14.10
2017-09-19T22:26:58.069Z,14.10
2017-09-19T22:29:25.620Z,14.10
2017-09-19T22:31:53.172Z,14.10
2017-09-19T22:34:21.474Z,14.00
2017-09-19T22:36:49.054Z,14.00
2017-09-19T22:39:16.592Z,14.00
2017-09-19T22:41:44.178Z,14.00
2017-09-19T22:44:11.708Z,14.00
2017-09-19T22:46:39.275Z,14.00
2017-09-19T22:49:06.811Z,14.00
2017-09-19T22:51:34.372Z,13.90
2017-09-19T22:54:01.947Z,13.80
2017-09-19T22:56:29.512Z,13.80
2017-09-19T22:58:57.048Z,13.70
2017-09-19T23:01:24.645Z,13.70
2017-09-19T23:03:52.164Z,13.70
2017-09-19T23:06:19.691Z,13.70
2017-09-19T23:08:48.783Z,13.80
2017-09-19T23:11:17.131Z,13.80
2017-09-19T23:13:45.571Z,13.80
2017-09-19T23:16:13.472Z,13.80
2017-09-19T23:18:41.000Z,13.70
2017-09-19T23:21:08.544Z,13.70
2017-09-19T23:23:36.064Z,13.70
2017-09-19T23:26:03.610Z,13.70
2017-09-19T23:28:31.152Z,13.70
2017-09-19T23:30:58.695Z,13.60
2017-09-19T23:33:26.211Z,13.50
2017-09-19T23:35:53.861Z,13.40
2017-09-19T23:38:21.395Z,13.20
2017-09-19T23:40:48.946Z,13.30
2017-09-19T23:43:16.489Z,13.30
2017-09-19T23:45:44.000Z,13.30
2017-09-19T23:48:11.521Z,13.30
2017-09-19T23:50:39.353Z,13.20
2017-09-19T23:53:07.659Z,13.20
2017-09-19T23:55:36.405Z,13.20
2017-09-19T23:58:04.650Z,13.10
